createdAt,value
2022-11-10T00:03:35.491Z,4.40
2022-11-10T00:08:56.608Z,4.70
2022-11-10T00:14:36.849Z,4.90
2022-11-10T00:19:58.553Z,4.18
2022-11-10T00:25:20.420Z,4.50
2022-11-10T00:30:46.656Z,4.85
2022-11-10T00:36:09.055Z,5.57
2022-11-10T00:41:30.081Z,5.40
2022-11-10T00:46:52.605Z,5.43
2022-11-10T00:52:13.923Z,5.18
2022-11-10T00:57:35.322Z,4.95
2022-11-10T01:02:58.022Z,6.45
2022-11-10T01:08:19.247Z,4.70
2022-11-10T01:13:40.604Z,5.78
2022-11-10T01:19:04.482Z,4.80
2022-11-10T01:24:25.747Z,4.90
2022-11-10T01:29:46.861Z,4.82
2022-11-10T01:35:10.034Z,4.72
2022-11-10T01:40:31.595Z,5.28
2022-11-10T01:45:54.398Z,4.85
2022-11-10T01:51:21.668Z,4.85
2022-11-10T01:56:46.639Z,4.53
2022-11-10T02:02:13.295Z,4.82
2022-11-10T02:07:36.896Z,4.72
2022-11-10T02:12:58.110Z,5.20
2022-11-10T02:18:19.533Z,4.50
2022-11-10T02:23:48.316Z,4.50
2022-11-10T02:34:31.213Z,4.95
2022-11-10T02:39:53.785Z,5.45
2022-11-10T02:45:15.147Z,5.30
2022-11-10T02:50:36.765Z,5.70
2022-11-10T02:55:59.999Z,5.80
2022-11-10T03:01:21.310Z,5.85
2022-11-10T03:06:42.920Z,7.03
2022-11-10T03:12:05.307Z,6.93
2022-11-10T03:17:26.628Z,7.35
2022-11-10T03:22:48.056Z,7.65
2022-11-10T03:28:11.214Z,7.35
2022-11-10T03:33:33.053Z,8.75
2022-11-10T03:38:54.673Z,8.40
2022-11-10T03:44:17.124Z,9.35
2022-11-10T03:49:38.479Z,8.27
2022-11-10T03:55:03.270Z,9.55
2022-11-10T04:00:26.871Z,8.07
2022-11-10T04:06:05.446Z,9.38
2022-11-10T04:11:45.146Z,9.30
2022-11-10T04:17:08.344Z,10.75
2022-11-10T04:22:43.697Z,10.63
2022-11-10T04:28:05.184Z,11.23
2022-11-10T04:33:28.099Z,11.85
2022-11-10T04:38:49.942Z,12.98
2022-11-10T04:44:10.973Z,13.15
2022-11-10T04:49:33.673Z,14.13
2022-11-10T04:54:54.914Z,13.80
2022-11-10T05:00:17.491Z,13.30
2022-11-10T05:05:40.831Z,13.88
2022-11-10T05:11:02.209Z,12.93
2022-11-10T05:16:23.605Z,11.73
2022-11-10T05:21:46.140Z,12.15
2022-11-10T05:27:08.337Z,12.38
2022-11-10T05:32:29.698Z,12.13
2022-11-10T05:37:52.582Z,11.68
2022-11-10T05:43:13.855Z,12.25
2022-11-10T05:48:34.955Z,12.07
2022-11-10T05:53:57.539Z,11.15
2022-11-10T05:59:18.865Z,10.95
2022-11-10T06:04:40.288Z,10.68
2022-11-10T06:10:03.016Z,10.85
2022-11-10T06:15:25.473Z,9.50
2022-11-10T06:20:47.581Z,11.23
2022-11-10T06:26:10.215Z,9.38
2022-11-10T06:31:31.451Z,8.43
2022-11-10T06:36:52.926Z,8.70
2022-11-10T06:42:15.466Z,8.25
2022-11-10T06:47:37.150Z,8.68
2022-11-10T06:53:00.622Z,9.73
2022-11-10T06:58:23.368Z,9.10
2022-11-10T07:04:05.460Z,8.68
2022-11-10T07:09:26.360Z,8.20
2022-11-10T07:14:48.918Z,8.48
2022-11-10T07:20:11.029Z,7.63
2022-11-10T07:25:35.475Z,9.00
2022-11-10T07:30:58.274Z,10.18
2022-11-10T07:36:19.650Z,8.65
2022-11-10T07:41:40.999Z,9.55
2022-11-10T07:47:03.489Z,9.80
2022-11-10T07:52:24.718Z,10.43
2022-11-10T07:57:45.939Z,10.07
2022-11-10T08:03:11.592Z,11.88
2022-11-10T08:08:32.917Z,11.25
2022-11-10T08:13:54.555Z,11.57
2022-11-10T08:19:17.256Z,11.63
2022-11-10T08:24:38.550Z,11.07
2022-11-10T08:36:21.272Z,10.88
2022-11-10T08:41:42.612Z,11.82
2022-11-10T08:47:03.866Z,12.40
2022-11-10T08:52:26.553Z,13.52
2022-11-10T08:57:48.459Z,12.93
2022-11-10T09:03:13.580Z,11.20
2022-11-10T09:08:36.333Z,11.05
2022-11-10T09:14:05.768Z,11.95
2022-11-10T09:19:27.077Z,11.35
2022-11-10T09:24:48.269Z,10.77
2022-11-10T09:30:17.410Z,24.80
2022-11-10T09:35:39.703Z,12.27
2022-11-10T09:41:03.418Z,11.63
2022-11-10T09:46:33.187Z,11.32
2022-11-10T09:51:55.983Z,11.13
2022-11-10T09:57:21.708Z,11.80
2022-11-10T10:02:51.050Z,11.02
2022-11-10T10:08:16.862Z,11.48
2022-11-10T10:13:57.064Z,11.93
2022-11-10T10:19:27.213Z,9.95
2022-11-10T10:24:50.123Z,10.02
2022-11-10T10:30:19.271Z,9.90
2022-11-10T10:35:42.988Z,9.82
2022-11-10T10:41:20.917Z,10.38
2022-11-10T10:46:48.075Z,12.57
2022-11-10T10:52:14.315Z,11.43
2022-11-10T10:57:35.581Z,12.32
2022-11-10T11:03:04.818Z,9.13
2022-11-10T11:08:28.040Z,9.40
2022-11-10T11:13:49.129Z,7.95
2022-11-10T11:19:10.396Z,8.23
2022-11-10T11:24:38.863Z,8.05
2022-11-10T11:30:07.090Z,7.93
2022-11-10T11:35:34.860Z,8.32
2022-11-10T11:41:08.606Z,9.18
2022-11-10T11:46:36.496Z,8.75
2022-11-10T11:52:09.233Z,8.40
2022-11-10T11:57:42.479Z,7.97
2022-11-10T12:03:33.282Z,7.63
2022-11-10T12:09:01.689Z,12.02
2022-11-10T12:14:34.261Z,6.93
2022-11-10T12:20:04.691Z,7.07
2022-11-10T12:25:32.215Z,6.78
2022-11-10T12:31:01.982Z,6.65
2022-11-10T12:36:27.282Z,6.25
2022-11-10T12:41:54.512Z,5.63
2022-11-10T12:47:21.457Z,6.13
2022-11-10T12:52:47.970Z,5.85
2022-11-10T12:58:14.111Z,5.57
2022-11-10T13:03:39.310Z,5.50
2022-11-10T13:09:00.703Z,5.57
2022-11-10T13:14:25.785Z,5.65
2022-11-10T13:19:53.873Z,10.48
2022-11-10T13:25:52.317Z,5.10
2022-11-10T13:31:42.302Z,5.10
2022-11-10T13:37:45.081Z,8.32
2022-11-10T13:43:27.727Z,5.25
2022-11-10T13:49:15.326Z,7.07
2022-11-10T13:55:05.697Z,20.23
2022-11-10T14:00:29.423Z,4.82
2022-11-10T14:06:05.659Z,5.03
2022-11-10T14:11:35.061Z,4.95
2022-11-10T14:16:57.170Z,4.35
2022-11-10T14:22:23.926Z,4.70
2022-11-10T14:27:46.709Z,5.65
2022-11-10T14:33:11.921Z,10.25
2022-11-10T14:38:35.663Z,4.30
2022-11-10T14:44:06.576Z,3.72
2022-11-10T14:49:27.924Z,4.53
2022-11-10T14:54:49.465Z,4.55
2022-11-10T15:00:18.449Z,2.97
2022-11-10T15:11:01.255Z,4.82
2022-11-10T15:16:26.774Z,3.08
2022-11-10T15:21:48.157Z,2.97
2022-11-10T15:27:14.163Z,3.38
2022-11-10T15:32:42.247Z,2.92
2022-11-10T15:38:05.878Z,3.00
2022-11-10T15:43:28.629Z,3.47
2022-11-10T15:48:53.664Z,2.72
2022-11-10T15:54:16.670Z,3.35
2022-11-10T15:59:37.820Z,3.00
2022-11-10T16:05:00.931Z,4.65
2022-11-10T16:10:24.664Z,2.85
2022-11-10T16:15:46.433Z,3.53
2022-11-10T16:21:13.267Z,3.15
2022-11-10T16:26:35.368Z,4.53
2022-11-10T16:31:56.638Z,3.50
2022-11-10T16:37:19.840Z,4.55
2022-11-10T16:42:41.318Z,3.03
2022-11-10T16:48:02.669Z,3.05
2022-11-10T16:53:28.063Z,2.72
2022-11-10T16:58:50.348Z,2.85
2022-11-10T17:04:14.190Z,2.47
2022-11-10T17:09:37.041Z,2.45
2022-11-10T17:14:58.315Z,3.10
2022-11-10T17:20:22.687Z,2.97
2022-11-10T17:25:45.662Z,3.05
2022-11-10T17:31:07.160Z,2.72
2022-11-10T17:36:29.021Z,2.38
2022-11-10T17:41:51.644Z,2.97
2022-11-10T17:47:12.916Z,2.20
2022-11-10T17:52:34.144Z,2.65
2022-11-10T17:57:57.296Z,2.67
2022-11-10T18:03:20.707Z,2.97
2022-11-10T18:08:42.284Z,3.28
2022-11-10T18:14:04.809Z,2.95
2022-11-10T18:19:26.055Z,2.22
2022-11-10T18:24:47.551Z,2.42
2022-11-10T18:30:11.450Z,3.35
2022-11-10T18:35:33.117Z,2.55
2022-11-10T18:40:54.507Z,2.70
2022-11-10T18:46:17.446Z,2.38
2022-11-10T18:51:43.037Z,3.30
2022-11-10T19:09:36.752Z,2.70
2022-11-10T19:14:58.437Z,2.53
2022-11-10T19:20:20.132Z,2.70
2022-11-10T19:25:42.967Z,4.00
2022-11-10T19:31:06.923Z,3.25
2022-11-10T19:36:29.563Z,2.67
2022-11-10T19:41:52.650Z,2.33
2022-11-10T19:47:17.059Z,2.40
2022-11-10T19:52:38.870Z,2.20
2022-11-10T19:58:02.302Z,2.30
2022-11-10T20:03:26.145Z,1.75
2022-11-10T20:08:47.679Z,2.10
2022-11-10T20:14:15.088Z,2.55
2022-11-10T20:19:40.831Z,1.80
2022-11-10T20:25:05.849Z,2.30
2022-11-10T20:30:30.924Z,1.95
2022-11-10T20:49:28.604Z,1.70
2022-11-10T21:09:10.953Z,1.70
2022-11-10T21:14:32.514Z,2.38
2022-11-10T21:19:55.078Z,2.00
2022-11-10T21:25:20.555Z,1.95
2022-11-10T21:30:42.041Z,2.17
2022-11-10T21:36:06.546Z,1.75
2022-11-10T21:41:29.356Z,1.85
2022-11-10T21:46:52.544Z,2.33
2022-11-10T21:52:13.866Z,2.60
2022-11-10T21:58:01.014Z,2.33
2022-11-10T22:03:24.086Z,2.28
2022-11-10T22:08:48.846Z,2.20
2022-11-10T22:14:31.044Z,2.50
2022-11-10T22:19:55.522Z,1.90
2022-11-10T22:25:16.853Z,2.50
2022-11-10T22:30:39.760Z,2.08
2022-11-10T22:36:02.872Z,1.95
2022-11-10T22:41:41.745Z,2.03
2022-11-10T22:47:05.012Z,1.65
2022-11-10T22:52:26.598Z,2.10
2022-11-10T22:57:48.226Z,2.03
2022-11-10T23:03:13.009Z,2.60
2022-11-10T23:08:35.074Z,2.10
2022-11-10T23:13:57.029Z,2.25
2022-11-10T23:19:19.826Z,2.10
2022-11-10T23:24:40.977Z,2.20
2022-11-10T23:30:02.492Z,2.20
2022-11-10T23:35:25.435Z,2.10
2022-11-10T23:40:46.897Z,2.10
2022-11-10T23:46:08.521Z,2.35
2022-11-10T23:51:31.241Z,2.08
2022-11-10T23:56:53.018Z,2.28
